Airfield :
LOGIN :

Register | Disclaimer

   EN    FR    IT 

 










Legend :    VFR   Marginal VFR   IFR   Intensive IFR   Very Intensive IFR
Visi :
Ceiling :
>= 8 km
>= 3000ft
5 to 8 km
1000 to 3000 ft
1500m to 5 km
500 to 1000 ft
800 to 1500m
200 to 500 ft
< 800m
< 200 ft
Symbols :   Thunderstorms  Fog  Heavy snow  Heavy precipitations  Wind > 20 kt
SIGMETs :     Misc.  Thunderstorms  Icing  Turbulence  Mountain Waves  Volcanic Ashes






- Airport Elevation : 495 ft
- IATA code : BUD


LHBP - Budapest Ferihegy

CURRENT METAR :
  • 280600Z 09004KT CAVOK 08/05 Q1017 NOSIG

EXPIRED METARs :
  • 280530Z 09004KT CAVOK 09/05 Q1017 NOSIG
  • 280500Z 08003KT CAVOK 09/05 Q1017 NOSIG
  • 280430Z 09003KT CAVOK 09/05 Q1017 NOSIG
  • 280400Z 08003KT 050V110 CAVOK 09/05 Q1017 NOSIG
  • 280330Z 08004KT CAVOK 10/06 Q1016 NOSIG
  • 280300Z 08004KT CAVOK 09/06 Q1016 NOSIG
  • 280230Z 08005KT CAVOK 09/05 Q1016 NOSIG
  • 280200Z 10006KT CAVOK 09/06 Q1016 NOSIG
  • 280130Z 09005KT CAVOK 10/06 Q1016 NOSIG
  • 280100Z 09005KT CAVOK 09/06 Q1016 NOSIG

TAF TAF LHBP
Valid from the 28 at 06:00 until the 29 at 06:00 UTC


280515Z 2806/2906 11005KT CAVOK
BECMG 2814/2817 05005KT
TEMPO 2820/2906 VRB02KT



MET'MAP, your aeronautical weather chart ! - Copyright ORBIFLY December 2007 - Disclaimer

ORBIFLY MET'MAP TEAM :

Programming & Development : Alexandra Zaïnal
Original concept : Baudouin d'Aumeries
Technical & hardware support : Manuel Goepfert
Assistance : Marc-Olivier Méhu




SOURCES & CREDITS :

   NOAA